createdAt,value
2022-09-21T00:01:41.093Z,99.90
2022-09-21T00:11:38.750Z,99.90
2022-09-21T00:16:41.556Z,99.90
2022-09-21T00:19:10.263Z,99.90
2022-09-21T00:21:39.308Z,99.90
2022-09-21T00:24:08.685Z,99.90
2022-09-21T00:26:37.036Z,99.90
2022-09-21T00:29:06.887Z,99.90
2022-09-21T00:31:35.326Z,99.90
2022-09-21T00:34:07.823Z,99.90
2022-09-21T00:39:05.106Z,99.90
2022-09-21T00:41:35.324Z,99.90
2022-09-21T00:44:33.165Z,99.90
2022-09-21T00:47:10.807Z,99.90
2022-09-21T00:49:42.589Z,99.90
2022-09-21T00:52:14.822Z,99.90
2022-09-21T00:54:49.992Z,99.90
2022-09-21T00:57:21.930Z,99.90
2022-09-21T00:59:53.291Z,99.90
2022-09-21T01:02:22.463Z,99.90
2022-09-21T01:04:55.689Z,99.90
2022-09-21T01:07:30.605Z,99.90
2022-09-21T01:12:56.878Z,99.90
2022-09-21T01:15:39.426Z,99.90
2022-09-21T01:18:21.228Z,99.90
2022-09-21T01:21:18.319Z,99.90
2022-09-21T01:24:37.481Z,99.90
2022-09-21T01:27:46.993Z,99.90
2022-09-21T01:30:20.024Z,99.90
2022-09-21T01:32:57.423Z,99.90
2022-09-21T01:35:33.548Z,99.90
2022-09-21T01:38:08.453Z,99.90
2022-09-21T01:40:43.553Z,99.90
2022-09-21T01:43:19.176Z,99.90
2022-09-21T01:45:54.884Z,99.90
2022-09-21T01:48:25.700Z,99.90
2022-09-21T01:50:58.401Z,99.90
2022-09-21T01:53:34.765Z,99.90
2022-09-21T01:56:11.631Z,99.90
2022-09-21T01:58:51.200Z,99.90
2022-09-21T02:01:28.523Z,99.90
2022-09-21T02:06:32.997Z,99.90
2022-09-21T02:09:01.777Z,99.90
2022-09-21T02:11:29.973Z,99.90
2022-09-21T02:19:22.137Z,99.90
2022-09-21T02:22:05.089Z,99.90
2022-09-21T02:27:27.667Z,99.90
2022-09-21T02:30:07.857Z,99.90
2022-09-21T02:32:50.430Z,99.90
2022-09-21T02:35:32.582Z,99.90
2022-09-21T02:38:12.102Z,99.90
2022-09-21T02:40:50.485Z,99.90
2022-09-21T02:43:25.864Z,99.90
2022-09-21T02:46:01.299Z,99.90
2022-09-21T02:48:37.987Z,99.90
2022-09-21T02:51:14.025Z,99.90
2022-09-21T02:53:44.347Z,99.90
2022-09-21T02:58:49.879Z,99.90
2022-09-21T03:01:20.244Z,99.90
2022-09-21T03:03:50.215Z,99.90
2022-09-21T03:06:18.404Z,99.90
2022-09-21T03:08:47.606Z,99.90
2022-09-21T03:11:18.389Z,99.90
2022-09-21T03:13:47.286Z,99.90
2022-09-21T03:16:15.648Z,99.90
2022-09-21T03:18:44.452Z,99.90
2022-09-21T03:21:14.835Z,99.90
2022-09-21T03:23:43.264Z,99.90
2022-09-21T03:26:11.490Z,99.90
2022-09-21T03:28:39.877Z,99.90
2022-09-21T03:33:36.896Z,99.90
2022-09-21T03:36:05.172Z,99.90
2022-09-21T03:38:34.890Z,99.90
2022-09-21T03:43:32.033Z,99.90
2022-09-21T03:46:00.599Z,99.90
2022-09-21T03:48:28.865Z,99.90
2022-09-21T03:53:26.402Z,99.90
2022-09-21T03:55:55.950Z,99.90
2022-09-21T04:00:52.796Z,99.90
2022-09-21T04:03:21.015Z,99.90
2022-09-21T04:05:49.503Z,99.90
2022-09-21T04:08:17.733Z,99.90
2022-09-21T04:10:45.879Z,99.90
2022-09-21T04:13:17.595Z,99.90
2022-09-21T04:15:45.786Z,99.90
2022-09-21T04:18:13.981Z,99.90
2022-09-21T04:20:42.196Z,99.90
2022-09-21T04:23:10.412Z,99.90
2022-09-21T04:25:38.602Z,99.90
2022-09-21T04:28:07.590Z,99.90
2022-09-21T04:30:38.113Z,99.90
2022-09-21T04:33:06.701Z,99.90
2022-09-21T04:35:34.991Z,99.90
2022-09-21T04:38:03.316Z,99.90
2022-09-21T04:40:31.532Z,99.90
2022-09-21T04:42:59.787Z,99.90
2022-09-21T04:45:27.998Z,99.90
2022-09-21T04:47:57.651Z,99.90
2022-09-21T04:53:05.835Z,99.90
2022-09-21T04:55:34.298Z,99.90
2022-09-21T05:03:01.710Z,99.90
2022-09-21T05:05:29.954Z,99.90
2022-09-21T05:07:58.149Z,99.90
2022-09-21T05:10:25.727Z,99.90
2022-09-21T05:12:53.941Z,99.90
2022-09-21T05:15:22.310Z,99.90
2022-09-21T05:17:50.538Z,99.90
2022-09-21T05:20:20.151Z,99.90
2022-09-21T05:25:17.544Z,99.90
2022-09-21T05:27:45.792Z,99.90
2022-09-21T05:30:16.039Z,99.90
2022-09-21T05:32:53.157Z,99.90
2022-09-21T05:35:34.144Z,99.90
2022-09-21T05:38:13.453Z,99.90
2022-09-21T05:40:42.509Z,99.90
2022-09-21T05:43:11.980Z,99.90
2022-09-21T05:48:20.674Z,99.90
2022-09-21T05:51:00.267Z,99.90
2022-09-21T05:56:49.795Z,99.90
2022-09-21T05:59:45.165Z,99.90
2022-09-21T06:02:28.978Z,99.90
2022-09-21T06:05:00.747Z,99.90
2022-09-21T06:07:30.254Z,99.90
2022-09-21T06:09:58.443Z,99.90
2022-09-21T06:12:26.686Z,99.90
2022-09-21T06:14:56.397Z,99.90
2022-09-21T06:17:27.314Z,99.90
2022-09-21T06:19:55.912Z,99.90
2022-09-21T06:22:24.094Z,99.90
2022-09-21T06:24:53.643Z,99.90
2022-09-21T06:27:21.867Z,99.90
2022-09-21T06:29:50.120Z,99.90
2022-09-21T06:32:20.739Z,99.90
2022-09-21T06:34:49.905Z,99.90
2022-09-21T06:39:46.796Z,99.90
2022-09-21T06:42:16.381Z,99.90
2022-09-21T06:44:44.770Z,99.90
2022-09-21T06:47:12.982Z,99.90
2022-09-21T06:52:11.025Z,99.90
2022-09-21T06:54:39.685Z,99.90
2022-09-21T06:59:37.821Z,99.90
2022-09-21T07:02:06.308Z,99.90
2022-09-21T07:04:34.589Z,99.90
2022-09-21T07:07:04.683Z,99.90
2022-09-21T07:12:22.027Z,99.90
2022-09-21T07:14:51.561Z,99.90
2022-09-21T07:17:19.993Z,99.90
2022-09-21T07:19:48.252Z,99.90
2022-09-21T07:22:16.483Z,99.90
2022-09-21T07:24:44.774Z,99.90
2022-09-21T07:27:13.034Z,99.90
2022-09-21T07:29:41.474Z,99.90
2022-09-21T07:32:11.082Z,99.90
2022-09-21T07:34:39.300Z,99.90
2022-09-21T07:37:07.524Z,99.90
2022-09-21T07:39:36.497Z,99.90
2022-09-21T07:42:04.867Z,99.90
2022-09-21T07:44:34.169Z,99.90
2022-09-21T07:49:33.087Z,99.90
2022-09-21T07:52:05.052Z,99.90
2022-09-21T07:57:23.579Z,99.90
2022-09-21T07:59:51.834Z,99.90
2022-09-21T08:04:50.522Z,99.90
2022-09-21T08:07:19.173Z,99.90
2022-09-21T08:09:49.379Z,99.90
2022-09-21T08:12:20.563Z,99.90
2022-09-21T08:14:48.863Z,99.90
2022-09-21T08:17:17.449Z,99.90
2022-09-21T08:19:45.767Z,99.90
2022-09-21T08:22:15.453Z,99.90
2022-09-21T08:24:44.546Z,99.90
2022-09-21T08:27:12.910Z,99.90
2022-09-21T08:32:13.436Z,99.90
2022-09-21T08:34:51.190Z,99.90
2022-09-21T08:37:21.951Z,99.90
2022-09-21T08:39:50.145Z,99.90
2022-09-21T08:42:40.912Z,99.90
2022-09-21T08:45:17.606Z,99.90
2022-09-21T08:47:49.409Z,99.50
2022-09-21T08:50:40.749Z,99.90
2022-09-21T08:53:15.940Z,99.90
2022-09-21T08:55:44.287Z,95.70
2022-09-21T08:58:24.407Z,97.30
2022-09-21T09:01:09.603Z,98.30
2022-09-21T09:04:04.381Z,98.80
2022-09-21T09:06:48.063Z,95.30
2022-09-21T09:09:45.835Z,99.90
2022-09-21T09:12:34.085Z,97.30
2022-09-21T09:15:36.573Z,94.50
2022-09-21T09:18:19.797Z,94.20
2022-09-21T09:20:57.133Z,96.60
2022-09-21T09:23:29.265Z,93.40
2022-09-21T09:26:09.001Z,98.60
2022-09-21T09:28:50.104Z,93.50
2022-09-21T09:31:26.169Z,90.40
2022-09-21T09:34:03.166Z,92.30
2022-09-21T09:36:57.274Z,85.50
2022-09-21T09:39:23.608Z,89.30
2022-09-21T09:42:41.315Z,85.70
2022-09-21T09:45:43.231Z,86.60
2022-09-21T09:48:43.033Z,85.40
2022-09-21T09:51:14.003Z,82.70
2022-09-21T09:53:42.389Z,80.10
2022-09-21T09:56:13.153Z,83.10
2022-09-21T09:58:49.614Z,86.30
2022-09-21T10:01:42.995Z,79.30
2022-09-21T10:04:14.167Z,84.70
2022-09-21T10:06:46.632Z,83.70
2022-09-21T10:09:27.575Z,76.50
2022-09-21T10:12:01.565Z,80.50
2022-09-21T10:14:36.089Z,80.00
2022-09-21T10:17:09.256Z,79.80
2022-09-21T10:19:38.198Z,83.70
2022-09-21T10:22:07.284Z,76.20
2022-09-21T10:24:40.743Z,81.00
2022-09-21T10:27:15.790Z,80.90
2022-09-21T10:29:48.393Z,81.80
2022-09-21T10:32:23.887Z,72.40
2022-09-21T10:35:15.317Z,70.20
2022-09-21T10:37:47.152Z,71.90
2022-09-21T10:40:30.803Z,68.00
2022-09-21T10:43:01.440Z,71.10
2022-09-21T10:45:34.789Z,64.40
2022-09-21T10:48:14.624Z,66.20
2022-09-21T10:50:45.952Z,71.00
2022-09-21T10:53:24.872Z,66.60
2022-09-21T10:56:17.909Z,67.50
2022-09-21T10:59:22.479Z,65.90
2022-09-21T11:01:55.577Z,65.80
2022-09-21T11:04:42.918Z,67.60
2022-09-21T11:07:20.238Z,70.40
2022-09-21T11:10:04.183Z,66.60
2022-09-21T11:12:54.207Z,64.70
2022-09-21T11:15:39.937Z,62.30
2022-09-21T11:18:21.765Z,61.50
2022-09-21T11:20:57.421Z,66.00
2022-09-21T11:23:48.474Z,64.40
2022-09-21T11:26:30.378Z,65.20
2022-09-21T11:29:06.954Z,62.30
2022-09-21T11:32:06.087Z,62.40
2022-09-21T11:35:27.444Z,64.50
2022-09-21T11:38:10.683Z,65.50
2022-09-21T11:41:19.569Z,59.00
2022-09-21T11:44:14.549Z,58.80
2022-09-21T11:46:52.842Z,64.00
2022-09-21T11:49:42.613Z,62.70
2022-09-21T11:52:33.212Z,67.40
2022-09-21T11:55:30.244Z,67.40
2022-09-21T11:58:11.513Z,67.30
2022-09-21T12:01:02.789Z,63.70
2022-09-21T12:04:18.088Z,65.00
2022-09-21T12:07:08.037Z,62.00
2022-09-21T12:12:34.820Z,58.90
2022-09-21T12:15:14.961Z,65.20
2022-09-21T12:17:58.476Z,67.70
2022-09-21T12:20:43.869Z,66.50
2022-09-21T12:23:19.943Z,68.50
2022-09-21T12:25:57.245Z,70.20
2022-09-21T12:28:32.391Z,68.40
2022-09-21T12:31:05.523Z,69.20
2022-09-21T12:33:42.936Z,68.20
2022-09-21T12:36:18.002Z,62.70
2022-09-21T12:38:57.352Z,67.90
2022-09-21T12:41:37.757Z,59.30
2022-09-21T12:44:18.659Z,68.60
2022-09-21T12:46:53.585Z,68.50
2022-09-21T12:49:31.296Z,62.30
2022-09-21T12:52:06.825Z,65.90
2022-09-21T12:54:46.858Z,68.70
2022-09-21T12:58:13.700Z,60.70
2022-09-21T13:00:27.368Z,59.70
2022-09-21T13:03:07.150Z,59.40
2022-09-21T13:05:53.088Z,58.00
2022-09-21T13:08:29.192Z,59.60
2022-09-21T13:11:04.602Z,60.00
2022-09-21T13:13:41.564Z,60.20
2022-09-21T13:18:59.421Z,63.80
2022-09-21T13:21:30.952Z,73.20
2022-09-21T13:24:02.641Z,69.10
2022-09-21T13:26:40.067Z,70.90
2022-09-21T13:29:32.909Z,70.80
2022-09-21T13:32:03.802Z,68.20
2022-09-21T13:37:35.547Z,65.10
2022-09-21T13:40:50.278Z,65.50
2022-09-21T13:43:26.509Z,61.30
2022-09-21T13:48:30.527Z,65.70
2022-09-21T13:51:02.822Z,72.20
2022-09-21T13:53:41.964Z,63.60
2022-09-21T13:56:25.446Z,62.70
2022-09-21T13:58:58.344Z,65.30
2022-09-21T14:01:52.454Z,64.60
2022-09-21T14:04:28.100Z,63.80
2022-09-21T14:06:59.290Z,64.90
2022-09-21T14:09:31.627Z,68.10
2022-09-21T14:12:06.293Z,61.50
2022-09-21T14:14:38.239Z,62.30
2022-09-21T14:17:36.300Z,63.20
2022-09-21T14:20:08.248Z,66.30
2022-09-21T14:22:46.730Z,64.10
2022-09-21T14:25:53.231Z,61.40
2022-09-21T14:28:35.548Z,67.50
2022-09-21T14:31:09.142Z,63.00
2022-09-21T14:33:49.164Z,64.20
2022-09-21T14:36:24.763Z,67.20
2022-09-21T14:39:00.479Z,64.90
2022-09-21T14:41:37.942Z,63.30
2022-09-21T14:44:06.452Z,65.30
2022-09-21T14:49:41.841Z,65.90
2022-09-21T14:52:43.550Z,70.30
2022-09-21T14:55:25.420Z,70.10
2022-09-21T14:58:26.163Z,71.00
2022-09-21T15:00:55.427Z,72.20
2022-09-21T15:04:04.544Z,74.10
2022-09-21T15:06:58.107Z,78.30
2022-09-21T15:10:09.587Z,77.60
2022-09-21T15:12:48.665Z,78.20
2022-09-21T15:15:36.929Z,77.20
2022-09-21T15:18:20.479Z,84.10
2022-09-21T15:21:01.309Z,76.80
2022-09-21T15:23:35.283Z,76.60
2022-09-21T15:26:11.039Z,78.60
2022-09-21T15:29:08.957Z,81.10
2022-09-21T15:31:42.977Z,75.70
2022-09-21T15:34:13.854Z,76.90
2022-09-21T15:36:45.579Z,78.70
2022-09-21T15:39:30.085Z,78.20
2022-09-21T15:42:22.737Z,76.50
2022-09-21T15:45:06.107Z,82.40
2022-09-21T15:47:35.347Z,81.00
2022-09-21T15:50:04.091Z,87.60
2022-09-21T15:52:38.304Z,85.90
2022-09-21T15:55:18.050Z,85.50
2022-09-21T15:57:48.005Z,86.80
2022-09-21T16:00:26.998Z,91.70
2022-09-21T16:03:05.630Z,89.40
2022-09-21T16:05:56.325Z,90.30
2022-09-21T16:08:33.508Z,93.20
2022-09-21T16:11:37.794Z,94.40
2022-09-21T16:17:21.217Z,98.90
2022-09-21T16:20:21.237Z,99.50
2022-09-21T16:25:32.486Z,97.50
2022-09-21T16:28:04.860Z,99.20
2022-09-21T16:30:51.103Z,99.90
2022-09-21T16:33:44.199Z,99.50
2022-09-21T16:36:50.237Z,99.90
2022-09-21T16:39:21.177Z,99.90
2022-09-21T16:44:26.164Z,99.90
2022-09-21T16:46:59.041Z,99.90
2022-09-21T16:49:31.340Z,99.90
2022-09-21T16:52:00.418Z,99.90
2022-09-21T16:54:29.806Z,99.90
2022-09-21T16:57:01.319Z,99.90
2022-09-21T16:59:33.218Z,99.90
2022-09-21T17:02:04.235Z,99.90
2022-09-21T17:04:34.745Z,99.90
2022-09-21T17:07:05.025Z,99.90
2022-09-21T17:09:38.381Z,99.90
2022-09-21T17:12:09.200Z,99.90
2022-09-21T17:14:44.328Z,99.90
2022-09-21T17:17:19.564Z,99.90
2022-09-21T17:19:50.096Z,99.90
2022-09-21T17:22:19.861Z,99.90
2022-09-21T17:24:52.107Z,99.90
2022-09-21T17:27:23.246Z,99.90
2022-09-21T17:29:55.211Z,99.90
2022-09-21T17:32:25.855Z,99.90
2022-09-21T17:35:02.117Z,99.90
2022-09-21T17:37:32.383Z,99.90
2022-09-21T17:40:01.172Z,99.90
2022-09-21T17:42:30.107Z,99.90
2022-09-21T17:45:15.753Z,99.90
2022-09-21T17:47:44.488Z,99.90
2022-09-21T17:50:26.248Z,99.90
2022-09-21T17:53:14.370Z,99.90
2022-09-21T17:58:45.492Z,99.90
2022-09-21T18:01:30.984Z,99.90
2022-09-21T18:04:00.652Z,99.90
2022-09-21T18:06:29.677Z,99.90
2022-09-21T18:09:01.661Z,99.90
2022-09-21T18:14:41.162Z,99.90
2022-09-21T18:17:38.441Z,99.90
2022-09-21T18:20:23.561Z,99.90
2022-09-21T18:23:03.673Z,99.90
2022-09-21T18:25:47.551Z,99.90
2022-09-21T18:28:28.858Z,99.90
2022-09-21T18:31:08.501Z,99.90
2022-09-21T18:33:56.804Z,99.90
2022-09-21T18:36:33.796Z,99.90
2022-09-21T18:39:22.510Z,99.90
2022-09-21T18:42:16.660Z,99.90
2022-09-21T18:44:57.552Z,99.90
2022-09-21T18:47:36.422Z,99.90
2022-09-21T18:50:24.630Z,99.90
2022-09-21T18:53:06.556Z,99.90
2022-09-21T18:55:37.275Z,99.90
2022-09-21T18:58:06.374Z,99.90
2022-09-21T19:00:35.657Z,99.90
2022-09-21T19:06:15.871Z,99.90
2022-09-21T19:11:34.917Z,99.90
2022-09-21T19:14:18.624Z,99.90
2022-09-21T19:17:06.135Z,99.90
2022-09-21T19:19:46.923Z,99.90
2022-09-21T19:22:29.898Z,99.90
2022-09-21T19:25:06.644Z,99.90
2022-09-21T19:27:40.188Z,99.90
2022-09-21T19:30:12.763Z,99.90
2022-09-21T19:32:46.997Z,99.90
2022-09-21T19:35:23.611Z,99.90
2022-09-21T19:37:55.952Z,99.90
2022-09-21T19:40:27.831Z,99.90
2022-09-21T19:43:23.105Z,99.90
2022-09-21T19:46:22.126Z,99.90
2022-09-21T19:48:56.965Z,99.90
2022-09-21T19:51:49.073Z,99.90
2022-09-21T19:54:40.252Z,99.90
2022-09-21T19:57:33.277Z,99.90
2022-09-21T20:00:03.261Z,99.90
2022-09-21T20:02:40.547Z,99.90
2022-09-21T20:05:16.080Z,99.90
2022-09-21T20:07:55.711Z,99.90
2022-09-21T20:13:22.046Z,99.90
2022-09-21T20:15:57.488Z,99.90
2022-09-21T20:18:38.714Z,99.90
2022-09-21T20:21:14.699Z,99.90
2022-09-21T20:23:43.816Z,99.90
2022-09-21T20:26:24.940Z,99.90
2022-09-21T20:31:26.506Z,99.90
2022-09-21T20:33:54.732Z,99.90
2022-09-21T20:36:23.355Z,99.90
2022-09-21T20:38:51.603Z,99.90
2022-09-21T20:41:22.230Z,99.90
2022-09-21T20:43:50.442Z,99.90
2022-09-21T20:46:18.766Z,99.90
2022-09-21T20:51:16.676Z,99.90
2022-09-21T20:53:45.290Z,99.90
2022-09-21T20:58:43.372Z,99.90
2022-09-21T21:01:11.613Z,99.90
2022-09-21T21:03:39.870Z,99.90
2022-09-21T21:06:13.764Z,99.90
2022-09-21T21:08:42.081Z,99.90
2022-09-21T21:11:11.216Z,99.90
2022-09-21T21:13:39.492Z,99.90
2022-09-21T21:16:12.041Z,99.90
2022-09-21T21:18:41.571Z,99.90
2022-09-21T21:21:10.122Z,99.90
2022-09-21T21:26:29.479Z,99.90
2022-09-21T21:29:10.291Z,99.90
2022-09-21T21:31:39.977Z,99.90
2022-09-21T21:34:08.534Z,99.90
2022-09-21T21:36:36.848Z,99.90
2022-09-21T21:39:05.338Z,99.90
2022-09-21T21:41:34.443Z,99.90
2022-09-21T21:44:03.073Z,99.90
2022-09-21T21:46:31.812Z,99.90
2022-09-21T21:49:01.836Z,99.90
2022-09-21T21:51:30.213Z,99.90
2022-09-21T21:56:27.139Z,99.90
2022-09-21T21:58:56.290Z,99.90
2022-09-21T22:01:28.108Z,99.90
2022-09-21T22:03:59.460Z,99.90
2022-09-21T22:06:31.994Z,99.90
2022-09-21T22:09:01.451Z,99.90
2022-09-21T22:11:32.232Z,99.90
2022-09-21T22:14:02.624Z,99.90
2022-09-21T22:16:34.202Z,99.90
2022-09-21T22:19:05.222Z,99.90
2022-09-21T22:21:40.900Z,99.90
2022-09-21T22:24:10.757Z,99.90
2022-09-21T22:26:46.065Z,99.90
2022-09-21T22:29:16.669Z,99.90
2022-09-21T22:31:48.238Z,99.90
2022-09-21T22:36:47.276Z,99.90
2022-09-21T22:41:44.688Z,99.90
2022-09-21T22:44:13.212Z,99.90
2022-09-21T22:46:41.789Z,99.90
2022-09-21T22:49:10.054Z,99.90
2022-09-21T22:51:38.952Z,99.90
2022-09-21T22:54:08.594Z,99.90
2022-09-21T22:56:37.086Z,99.90
2022-09-21T22:59:06.789Z,99.90
2022-09-21T23:01:37.658Z,99.90
2022-09-21T23:04:09.191Z,99.90
2022-09-21T23:06:40.223Z,99.90
2022-09-21T23:09:14.800Z,99.90
2022-09-21T23:14:17.548Z,99.90
2022-09-21T23:16:46.623Z,99.90
2022-09-21T23:19:16.361Z,99.90
2022-09-21T23:21:47.048Z,99.90
2022-09-21T23:24:16.945Z,99.90
2022-09-21T23:29:16.522Z,99.90
2022-09-21T23:34:16.108Z,99.90
2022-09-21T23:36:45.790Z,99.90
2022-09-21T23:39:16.615Z,99.90
2022-09-21T23:41:45.360Z,99.90
2022-09-21T23:44:13.545Z,99.90
2022-09-21T23:46:42.443Z,99.90
2022-09-21T23:49:11.311Z,99.90
2022-09-21T23:51:39.737Z,99.90
2022-09-21T23:54:08.543Z,99.90
2022-09-21T23:56:38.686Z,99.90
2022-09-21T23:59:06.974Z,99.90
